sensor_id;sensor_type;location;lat;lon;timestamp;temperature;humidity
8994;DHT22;4532;50.886;4.700;2023-05-10T00:00:41;16.20;99.90
8994;DHT22;4532;50.886;4.700;2023-05-10T00:03:10;16.20;99.90
8994;DHT22;4532;50.886;4.700;2023-05-10T00:05:38;16.20;99.90
8994;DHT22;4532;50.886;4.700;2023-05-10T00:08:07;16.20;99.90
8994;DHT22;4532;50.886;4.700;2023-05-10T00:10:37;16.20;99.90
8994;DHT22;4532;50.886;4.700;2023-05-10T00:13:06;16.10;99.90
8994;DHT22;4532;50.886;4.700;2023-05-10T00:15:36;16.10;99.90
8994;DHT22;4532;50.886;4.700;2023-05-10T00:18:03;16.10;99.90
8994;DHT22;4532;50.886;4.700;2023-05-10T00:20:32;16.10;99.90
8994;DHT22;4532;50.886;4.700;2023-05-10T00:23:00;16.10;99.90
8994;DHT22;4532;50.886;4.700;2023-05-10T00:25:29;16.00;99.90
8994;DHT22;4532;50.886;4.700;2023-05-10T00:27:59;16.00;99.90
8994;DHT22;4532;50.886;4.700;2023-05-10T00:30:28;16.10;99.90
8994;DHT22;4532;50.886;4.700;2023-05-10T00:32:57;16.00;99.90
8994;DHT22;4532;50.886;4.700;2023-05-10T00:35:27;16.00;99.90
8994;DHT22;4532;50.886;4.700;2023-05-10T00:37:57;16.00;99.90
8994;DHT22;4532;50.886;4.700;2023-05-10T00:40:26;16.00;99.90
8994;DHT22;4532;50.886;4.700;2023-05-10T00:42:53;16.00;99.90
8994;DHT22;4532;50.886;4.700;2023-05-10T00:45:20;16.00;99.90
8994;DHT22;4532;50.886;4.700;2023-05-10T00:47:50;16.00;99.90
8994;DHT22;4532;50.886;4.700;2023-05-10T00:50:19;16.00;99.90
8994;DHT22;4532;50.886;4.700;2023-05-10T00:52:48;16.00;99.90
8994;DHT22;4532;50.886;4.700;2023-05-10T00:55:18;16.00;99.90
8994;DHT22;4532;50.886;4.700;2023-05-10T00:57:50;16.00;99.90
8994;DHT22;4532;50.886;4.700;2023-05-10T01:00:20;16.00;99.90
8994;DHT22;4532;50.886;4.700;2023-05-10T01:02:50;16.00;99.90
8994;DHT22;4532;50.886;4.700;2023-05-10T01:05:19;16.00;99.90
8994;DHT22;4532;50.886;4.700;2023-05-10T01:07:47;16.00;99.90
8994;DHT22;4532;50.886;4.700;2023-05-10T01:10:15;16.00;99.90
8994;DHT22;4532;50.886;4.700;2023-05-10T01:12:46;15.90;99.90
8994;DHT22;4532;50.886;4.700;2023-05-10T01:15:17;16.00;99.90
8994;DHT22;4532;50.886;4.700;2023-05-10T01:17:48;15.90;99.90
8994;DHT22;4532;50.886;4.700;2023-05-10T01:20:20;15.90;99.90
8994;DHT22;4532;50.886;4.700;2023-05-10T01:34:25;15.90;99.90
8994;DHT22;4532;50.886;4.700;2023-05-10T01:37:06;15.90;99.90
8994;DHT22;4532;50.886;4.700;2023-05-10T01:40:03;15.90;99.90
8994;DHT22;4532;50.886;4.700;2023-05-10T01:42:51;15.90;99.90
8994;DHT22;4532;50.886;4.700;2023-05-10T01:45:41;15.90;99.90
8994;DHT22;4532;50.886;4.700;2023-05-10T01:48:15;15.90;99.90
8994;DHT22;4532;50.886;4.700;2023-05-10T01:50:43;15.90;99.90
8994;DHT22;4532;50.886;4.700;2023-05-10T01:53:18;15.90;99.90
8994;DHT22;4532;50.886;4.700;2023-05-10T01:55:51;15.90;99.90
8994;DHT22;4532;50.886;4.700;2023-05-10T01:58:29;15.90;99.90
8994;DHT22;4532;50.886;4.700;2023-05-10T02:01:01;15.90;99.90
8994;DHT22;4532;50.886;4.700;2023-05-10T02:03:35;15.90;99.90
8994;DHT22;4532;50.886;4.700;2023-05-10T02:06:12;15.80;99.90
8994;DHT22;4532;50.886;4.700;2023-05-10T02:08:46;15.90;99.90
8994;DHT22;4532;50.886;4.700;2023-05-10T02:11:14;15.80;99.90
8994;DHT22;4532;50.886;4.700;2023-05-10T02:13:44;15.80;99.90
8994;DHT22;4532;50.886;4.700;2023-05-10T02:16:19;15.80;99.90
8994;DHT22;4532;50.886;4.700;2023-05-10T02:18:56;15.80;99.90
8994;DHT22;4532;50.886;4.700;2023-05-10T02:21:27;15.80;99.90
8994;DHT22;4532;50.886;4.700;2023-05-10T02:23:58;15.80;99.90
8994;DHT22;4532;50.886;4.700;2023-05-10T02:26:28;15.80;99.90
8994;DHT22;4532;50.886;4.700;2023-05-10T02:28:57;15.80;99.90
8994;DHT22;4532;50.886;4.700;2023-05-10T02:31:30;15.80;99.90
8994;DHT22;4532;50.886;4.700;2023-05-10T02:34:00;15.80;99.90
8994;DHT22;4532;50.886;4.700;2023-05-10T02:36:30;15.80;99.90
8994;DHT22;4532;50.886;4.700;2023-05-10T02:38:59;15.80;99.90
8994;DHT22;4532;50.886;4.700;2023-05-10T02:41:31;15.80;99.90
8994;DHT22;4532;50.886;4.700;2023-05-10T02:44:02;15.80;99.90
8994;DHT22;4532;50.886;4.700;2023-05-10T02:46:30;15.80;99.90
8994;DHT22;4532;50.886;4.700;2023-05-10T02:49:03;15.80;99.90
8994;DHT22;4532;50.886;4.700;2023-05-10T02:51:35;15.90;99.90
8994;DHT22;4532;50.886;4.700;2023-05-10T02:54:15;15.80;99.90
8994;DHT22;4532;50.886;4.700;2023-05-10T02:57:04;15.90;99.90
8994;DHT22;4532;50.886;4.700;2023-05-10T02:59:38;15.90;99.90
8994;DHT22;4532;50.886;4.700;2023-05-10T03:02:06;15.80;99.90
8994;DHT22;4532;50.886;4.700;2023-05-10T03:04:35;15.80;99.90
8994;DHT22;4532;50.886;4.700;2023-05-10T03:07:05;15.90;99.90
8994;DHT22;4532;50.886;4.700;2023-05-10T03:09:35;15.90;99.90
8994;DHT22;4532;50.886;4.700;2023-05-10T03:16:11;15.90;99.90
8994;DHT22;4532;50.886;4.700;2023-05-10T03:18:09;15.90;99.90
8994;DHT22;4532;50.886;4.700;2023-05-10T03:20:54;15.90;99.90
8994;DHT22;4532;50.886;4.700;2023-05-10T03:26:08;15.90;99.90
8994;DHT22;4532;50.886;4.700;2023-05-10T03:28:38;15.90;99.90
8994;DHT22;4532;50.886;4.700;2023-05-10T03:31:06;15.90;99.90
8994;DHT22;4532;50.886;4.700;2023-05-10T03:33:34;15.90;99.90
8994;DHT22;4532;50.886;4.700;2023-05-10T03:36:03;15.90;99.90
8994;DHT22;4532;50.886;4.700;2023-05-10T03:38:35;15.80;99.90
8994;DHT22;4532;50.886;4.700;2023-05-10T03:41:02;15.90;99.90
8994;DHT22;4532;50.886;4.700;2023-05-10T03:43:29;15.90;99.90
8994;DHT22;4532;50.886;4.700;2023-05-10T03:46:01;15.90;99.90
8994;DHT22;4532;50.886;4.700;2023-05-10T03:48:28;15.80;99.90
8994;DHT22;4532;50.886;4.700;2023-05-10T03:50:57;15.80;99.90
8994;DHT22;4532;50.886;4.700;2023-05-10T03:53:27;15.80;99.90
8994;DHT22;4532;50.886;4.700;2023-05-10T03:55:57;15.80;99.90
8994;DHT22;4532;50.886;4.700;2023-05-10T03:58:29;15.80;99.90
8994;DHT22;4532;50.886;4.700;2023-05-10T04:00:58;15.80;99.90
8994;DHT22;4532;50.886;4.700;2023-05-10T04:03:27;15.80;99.90
8994;DHT22;4532;50.886;4.700;2023-05-10T04:06:03;15.80;99.90
8994;DHT22;4532;50.886;4.700;2023-05-10T04:08:33;15.80;99.90
8994;DHT22;4532;50.886;4.700;2023-05-10T04:11:07;15.70;99.90
8994;DHT22;4532;50.886;4.700;2023-05-10T04:13:37;15.70;99.90
8994;DHT22;4532;50.886;4.700;2023-05-10T04:16:09;15.60;99.90
8994;DHT22;4532;50.886;4.700;2023-05-10T04:18:39;15.60;99.90
8994;DHT22;4532;50.886;4.700;2023-05-10T04:21:13;15.60;99.90
8994;DHT22;4532;50.886;4.700;2023-05-10T04:23:43;15.60;99.90
8994;DHT22;4532;50.886;4.700;2023-05-10T04:26:13;15.60;99.90
8994;DHT22;4532;50.886;4.700;2023-05-10T04:28:40;15.50;99.90
8994;DHT22;4532;50.886;4.700;2023-05-10T04:31:10;15.50;99.90
8994;DHT22;4532;50.886;4.700;2023-05-10T04:33:42;15.50;99.90
8994;DHT22;4532;50.886;4.700;2023-05-10T04:36:11;15.50;99.90
8994;DHT22;4532;50.886;4.700;2023-05-10T04:38:41;15.40;99.90
8994;DHT22;4532;50.886;4.700;2023-05-10T04:41:12;15.40;99.90
8994;DHT22;4532;50.886;4.700;2023-05-10T04:43:43;15.40;99.90
8994;DHT22;4532;50.886;4.700;2023-05-10T04:46:11;15.30;99.90
8994;DHT22;4532;50.886;4.700;2023-05-10T04:48:40;15.30;99.90
8994;DHT22;4532;50.886;4.700;2023-05-10T04:51:07;15.30;99.90
8994;DHT22;4532;50.886;4.700;2023-05-10T04:53:37;15.30;99.90
8994;DHT22;4532;50.886;4.700;2023-05-10T04:56:04;15.30;99.90
8994;DHT22;4532;50.886;4.700;2023-05-10T04:58:32;15.30;99.90
8994;DHT22;4532;50.886;4.700;2023-05-10T05:01:08;15.30;99.90
8994;DHT22;4532;50.886;4.700;2023-05-10T05:03:37;15.30;99.90
8994;DHT22;4532;50.886;4.700;2023-05-10T05:06:07;15.30;99.90
8994;DHT22;4532;50.886;4.700;2023-05-10T05:08:38;15.30;99.90
8994;DHT22;4532;50.886;4.700;2023-05-10T05:11:06;15.30;99.90
8994;DHT22;4532;50.886;4.700;2023-05-10T05:13:33;15.30;99.90
8994;DHT22;4532;50.886;4.700;2023-05-10T05:16:02;15.30;99.90
8994;DHT22;4532;50.886;4.700;2023-05-10T05:18:30;15.30;99.90
8994;DHT22;4532;50.886;4.700;2023-05-10T05:20:57;15.30;99.90
8994;DHT22;4532;50.886;4.700;2023-05-10T05:23:29;15.30;99.90
8994;DHT22;4532;50.886;4.700;2023-05-10T05:25:59;15.30;99.90
8994;DHT22;4532;50.886;4.700;2023-05-10T05:28:28;15.40;99.90
8994;DHT22;4532;50.886;4.700;2023-05-10T05:30:59;15.40;99.90
8994;DHT22;4532;50.886;4.700;2023-05-10T05:33:31;15.40;99.90
8994;DHT22;4532;50.886;4.700;2023-05-10T05:36:03;15.40;99.90
8994;DHT22;4532;50.886;4.700;2023-05-10T05:38:30;15.40;99.90
8994;DHT22;4532;50.886;4.700;2023-05-10T05:41:00;15.40;99.90
8994;DHT22;4532;50.886;4.700;2023-05-10T05:43:30;15.40;99.90
8994;DHT22;4532;50.886;4.700;2023-05-10T05:45:59;15.40;99.90
8994;DHT22;4532;50.886;4.700;2023-05-10T05:48:26;15.40;99.90
8994;DHT22;4532;50.886;4.700;2023-05-10T05:50:57;15.50;99.90
8994;DHT22;4532;50.886;4.700;2023-05-10T05:53:24;15.50;99.90
8994;DHT22;4532;50.886;4.700;2023-05-10T05:55:55;15.50;99.90
8994;DHT22;4532;50.886;4.700;2023-05-10T05:58:23;15.50;99.90
8994;DHT22;4532;50.886;4.700;2023-05-10T06:00:51;15.40;99.90
8994;DHT22;4532;50.886;4.700;2023-05-10T06:03:23;15.50;99.90
8994;DHT22;4532;50.886;4.700;2023-05-10T06:05:56;15.50;99.90
8994;DHT22;4532;50.886;4.700;2023-05-10T06:08:25;15.50;99.90
8994;DHT22;4532;50.886;4.700;2023-05-10T06:10:57;15.50;99.90
8994;DHT22;4532;50.886;4.700;2023-05-10T06:13:24;15.50;99.90
8994;DHT22;4532;50.886;4.700;2023-05-10T06:15:58;15.50;99.90
8994;DHT22;4532;50.886;4.700;2023-05-10T06:18:25;15.50;99.90
8994;DHT22;4532;50.886;4.700;2023-05-10T06:20:52;15.60;99.90
8994;DHT22;4532;50.886;4.700;2023-05-10T06:23:27;15.60;99.90
8994;DHT22;4532;50.886;4.700;2023-05-10T06:25:58;15.60;99.90
8994;DHT22;4532;50.886;4.700;2023-05-10T06:28:26;15.60;99.90
8994;DHT22;4532;50.886;4.700;2023-05-10T06:30:55;15.60;99.90
8994;DHT22;4532;50.886;4.700;2023-05-10T06:33:25;15.60;99.90
8994;DHT22;4532;50.886;4.700;2023-05-10T06:35:52;15.70;99.90
8994;DHT22;4532;50.886;4.700;2023-05-10T06:38:19;15.70;99.90
8994;DHT22;4532;50.886;4.700;2023-05-10T06:40:51;15.70;99.90
8994;DHT22;4532;50.886;4.700;2023-05-10T06:43:20;15.70;99.90
8994;DHT22;4532;50.886;4.700;2023-05-10T06:45:48;15.70;99.90
8994;DHT22;4532;50.886;4.700;2023-05-10T06:48:15;15.80;99.90
8994;DHT22;4532;50.886;4.700;2023-05-10T06:50:44;15.80;99.90
8994;DHT22;4532;50.886;4.700;2023-05-10T06:53:14;15.80;99.90
8994;DHT22;4532;50.886;4.700;2023-05-10T06:55:42;15.80;99.90
8994;DHT22;4532;50.886;4.700;2023-05-10T06:58:09;15.90;99.90
8994;DHT22;4532;50.886;4.700;2023-05-10T07:00:36;15.90;99.90
8994;DHT22;4532;50.886;4.700;2023-05-10T07:03:12;15.80;99.90
8994;DHT22;4532;50.886;4.700;2023-05-10T07:05:39;15.90;99.90
8994;DHT22;4532;50.886;4.700;2023-05-10T07:08:09;15.90;99.90
8994;DHT22;4532;50.886;4.700;2023-05-10T07:10:36;15.90;99.90
8994;DHT22;4532;50.886;4.700;2023-05-10T07:13:08;15.90;99.90
8994;DHT22;4532;50.886;4.700;2023-05-10T07:20:13;15.90;99.90
8994;DHT22;4532;50.886;4.700;2023-05-10T07:22:42;15.90;99.90
8994;DHT22;4532;50.886;4.700;2023-05-10T07:25:14;15.90;99.90
8994;DHT22;4532;50.886;4.700;2023-05-10T07:27:41;15.90;99.90
8994;DHT22;4532;50.886;4.700;2023-05-10T07:30:09;15.90;99.90
8994;DHT22;4532;50.886;4.700;2023-05-10T07:32:36;15.90;99.90
8994;DHT22;4532;50.886;4.700;2023-05-10T07:35:04;15.90;99.90
8994;DHT22;4532;50.886;4.700;2023-05-10T07:37:35;15.90;99.90
8994;DHT22;4532;50.886;4.700;2023-05-10T07:40:06;15.90;99.90
8994;DHT22;4532;50.886;4.700;2023-05-10T07:42:35;15.90;99.90
8994;DHT22;4532;50.886;4.700;2023-05-10T07:45:03;15.90;99.90
8994;DHT22;4532;50.886;4.700;2023-05-10T07:47:32;15.90;99.90
8994;DHT22;4532;50.886;4.700;2023-05-10T07:50:02;15.90;99.90
8994;DHT22;4532;50.886;4.700;2023-05-10T07:52:31;15.90;99.90
8994;DHT22;4532;50.886;4.700;2023-05-10T07:55:01;15.90;99.90
8994;DHT22;4532;50.886;4.700;2023-05-10T07:57:28;15.90;99.90
8994;DHT22;4532;50.886;4.700;2023-05-10T07:59:57;15.80;99.90
8994;DHT22;4532;50.886;4.700;2023-05-10T08:02:25;15.80;99.90
8994;DHT22;4532;50.886;4.700;2023-05-10T08:04:52;15.80;99.90
8994;DHT22;4532;50.886;4.700;2023-05-10T08:07:25;15.80;99.90
8994;DHT22;4532;50.886;4.700;2023-05-10T08:09:54;15.70;99.90
8994;DHT22;4532;50.886;4.700;2023-05-10T08:12:21;15.80;99.90
8994;DHT22;4532;50.886;4.700;2023-05-10T08:14:48;15.70;99.90
8994;DHT22;4532;50.886;4.700;2023-05-10T08:17:18;15.70;99.90
8994;DHT22;4532;50.886;4.700;2023-05-10T08:19:50;15.60;99.90
8994;DHT22;4532;50.886;4.700;2023-05-10T08:22:20;15.60;99.90
8994;DHT22;4532;50.886;4.700;2023-05-10T08:24:49;15.70;99.90
8994;DHT22;4532;50.886;4.700;2023-05-10T08:27:19;15.60;99.90
8994;DHT22;4532;50.886;4.700;2023-05-10T08:29:46;15.60;99.90
8994;DHT22;4532;50.886;4.700;2023-05-10T08:32:18;15.60;99.90
8994;DHT22;4532;50.886;4.700;2023-05-10T08:34:50;15.60;99.90
8994;DHT22;4532;50.886;4.700;2023-05-10T08:37:20;15.50;99.90
8994;DHT22;4532;50.886;4.700;2023-05-10T08:39:47;15.50;99.90
8994;DHT22;4532;50.886;4.700;2023-05-10T08:42:19;15.60;99.90
8994;DHT22;4532;50.886;4.700;2023-05-10T08:44:50;15.50;99.90
8994;DHT22;4532;50.886;4.700;2023-05-10T08:47:21;15.60;99.90
8994;DHT22;4532;50.886;4.700;2023-05-10T08:49:50;15.60;99.90
8994;DHT22;4532;50.886;4.700;2023-05-10T08:52:25;15.60;99.90
8994;DHT22;4532;50.886;4.700;2023-05-10T08:54:56;15.60;99.90
8994;DHT22;4532;50.886;4.700;2023-05-10T08:57:23;15.60;99.90
8994;DHT22;4532;50.886;4.700;2023-05-10T08:59:50;15.60;99.90
8994;DHT22;4532;50.886;4.700;2023-05-10T09:02:19;15.60;99.90
8994;DHT22;4532;50.886;4.700;2023-05-10T09:04:48;15.60;99.90
8994;DHT22;4532;50.886;4.700;2023-05-10T09:07:22;15.60;99.90
8994;DHT22;4532;50.886;4.700;2023-05-10T09:09:55;15.60;99.90
8994;DHT22;4532;50.886;4.700;2023-05-10T09:12:23;15.60;99.90
8994;DHT22;4532;50.886;4.700;2023-05-10T09:14:54;15.60;99.90
8994;DHT22;4532;50.886;4.700;2023-05-10T09:17:25;15.60;99.90
8994;DHT22;4532;50.886;4.700;2023-05-10T09:20:03;15.60;99.90
8994;DHT22;4532;50.886;4.700;2023-05-10T09:22:33;15.60;99.90
8994;DHT22;4532;50.886;4.700;2023-05-10T09:25:14;15.60;99.90
8994;DHT22;4532;50.886;4.700;2023-05-10T09:27:50;15.70;99.90
8994;DHT22;4532;50.886;4.700;2023-05-10T09:30:28;15.70;99.90
8994;DHT22;4532;50.886;4.700;2023-05-10T09:32:57;15.70;99.90
8994;DHT22;4532;50.886;4.700;2023-05-10T09:35:26;15.70;99.90
8994;DHT22;4532;50.886;4.700;2023-05-10T09:38:01;15.70;99.90
8994;DHT22;4532;50.886;4.700;2023-05-10T09:40:31;15.70;99.90
8994;DHT22;4532;50.886;4.700;2023-05-10T09:43:01;15.70;99.90
8994;DHT22;4532;50.886;4.700;2023-05-10T09:45:30;15.70;99.90
8994;DHT22;4532;50.886;4.700;2023-05-10T09:47:58;15.80;99.90
8994;DHT22;4532;50.886;4.700;2023-05-10T09:50:29;15.70;99.90
8994;DHT22;4532;50.886;4.700;2023-05-10T09:53:05;15.80;99.90
8994;DHT22;4532;50.886;4.700;2023-05-10T09:55:42;15.80;99.90
8994;DHT22;4532;50.886;4.700;2023-05-10T09:58:14;15.90;99.90
8994;DHT22;4532;50.886;4.700;2023-05-10T10:00:43;15.90;99.90
8994;DHT22;4532;50.886;4.700;2023-05-10T10:03:20;15.90;99.90
8994;DHT22;4532;50.886;4.700;2023-05-10T10:05:48;16.00;99.90
8994;DHT22;4532;50.886;4.700;2023-05-10T10:08:19;16.00;99.90
8994;DHT22;4532;50.886;4.700;2023-05-10T10:10:50;16.00;99.90
8994;DHT22;4532;50.886;4.700;2023-05-10T10:13:17;16.10;99.90
8994;DHT22;4532;50.886;4.700;2023-05-10T10:15:49;16.10;99.90
8994;DHT22;4532;50.886;4.700;2023-05-10T10:18:19;16.10;99.90
8994;DHT22;4532;50.886;4.700;2023-05-10T10:20:53;16.10;99.90
8994;DHT22;4532;50.886;4.700;2023-05-10T10:23:25;16.20;99.90
8994;DHT22;4532;50.886;4.700;2023-05-10T10:25:53;16.20;99.90
8994;DHT22;4532;50.886;4.700;2023-05-10T10:30:55;16.30;99.90
8994;DHT22;4532;50.886;4.700;2023-05-10T10:33:55;16.30;99.90
8994;DHT22;4532;50.886;4.700;2023-05-10T10:36:23;16.30;99.90
8994;DHT22;4532;50.886;4.700;2023-05-10T10:38:54;16.20;99.90
8994;DHT22;4532;50.886;4.700;2023-05-10T10:44:25;16.30;99.90
8994;DHT22;4532;50.886;4.700;2023-05-10T10:49:38;16.30;99.90
8994;DHT22;4532;50.886;4.700;2023-05-10T10:52:27;16.30;99.90
8994;DHT22;4532;50.886;4.700;2023-05-10T10:57:51;16.40;99.90
8994;DHT22;4532;50.886;4.700;2023-05-10T11:00:32;16.50;99.90
8994;DHT22;4532;50.886;4.700;2023-05-10T11:03:11;16.50;99.90
8994;DHT22;4532;50.886;4.700;2023-05-10T11:05:48;16.50;99.90
8994;DHT22;4532;50.886;4.700;2023-05-10T11:13:34;16.70;99.90
8994;DHT22;4532;50.886;4.700;2023-05-10T11:16:22;16.70;99.90
8994;DHT22;4532;50.886;4.700;2023-05-10T11:19:07;16.70;99.90
8994;DHT22;4532;50.886;4.700;2023-05-10T11:21:51;16.80;99.90
8994;DHT22;4532;50.886;4.700;2023-05-10T11:24:27;16.80;99.90
8994;DHT22;4532;50.886;4.700;2023-05-10T11:26:55;16.90;99.90
8994;DHT22;4532;50.886;4.700;2023-05-10T11:29:25;16.90;99.90
8994;DHT22;4532;50.886;4.700;2023-05-10T11:31:59;17.00;99.90
8994;DHT22;4532;50.886;4.700;2023-05-10T11:34:31;17.10;99.90
8994;DHT22;4532;50.886;4.700;2023-05-10T11:37:03;17.10;99.90
8994;DHT22;4532;50.886;4.700;2023-05-10T11:39:33;17.20;99.90
8994;DHT22;4532;50.886;4.700;2023-05-10T11:42:00;17.30;99.90
8994;DHT22;4532;50.886;4.700;2023-05-10T11:44:31;17.30;99.90
8994;DHT22;4532;50.886;4.700;2023-05-10T11:47:01;17.40;99.90
8994;DHT22;4532;50.886;4.700;2023-05-10T11:49:31;17.40;99.90
8994;DHT22;4532;50.886;4.700;2023-05-10T11:52:08;17.50;99.90
8994;DHT22;4532;50.886;4.700;2023-05-10T11:54:37;17.60;99.90
8994;DHT22;4532;50.886;4.700;2023-05-10T11:57:11;17.60;99.90
8994;DHT22;4532;50.886;4.700;2023-05-10T11:59:38;17.60;99.90
8994;DHT22;4532;50.886;4.700;2023-05-10T12:02:09;17.60;99.90
8994;DHT22;4532;50.886;4.700;2023-05-10T12:04:37;17.70;99.90
8994;DHT22;4532;50.886;4.700;2023-05-10T12:07:06;17.70;99.90
8994;DHT22;4532;50.886;4.700;2023-05-10T12:09:36;17.70;99.90
8994;DHT22;4532;50.886;4.700;2023-05-10T12:12:18;17.70;99.90
8994;DHT22;4532;50.886;4.700;2023-05-10T12:14:50;17.70;99.90
8994;DHT22;4532;50.886;4.700;2023-05-10T12:17:27;17.70;99.90
8994;DHT22;4532;50.886;4.700;2023-05-10T12:19:59;17.80;99.90
8994;DHT22;4532;50.886;4.700;2023-05-10T12:23:00;17.90;99.90
8994;DHT22;4532;50.886;4.700;2023-05-10T12:25:38;17.90;99.90
8994;DHT22;4532;50.886;4.700;2023-05-10T12:28:08;17.90;99.90
8994;DHT22;4532;50.886;4.700;2023-05-10T12:30:38;18.00;99.90
8994;DHT22;4532;50.886;4.700;2023-05-10T12:33:13;18.00;99.90
8994;DHT22;4532;50.886;4.700;2023-05-10T12:35:47;18.00;99.90
8994;DHT22;4532;50.886;4.700;2023-05-10T12:38:34;18.00;99.90
8994;DHT22;4532;50.886;4.700;2023-05-10T12:41:07;18.00;99.90
8994;DHT22;4532;50.886;4.700;2023-05-10T12:43:39;18.10;99.90
8994;DHT22;4532;50.886;4.700;2023-05-10T12:48:39;18.20;99.90
8994;DHT22;4532;50.886;4.700;2023-05-10T12:51:08;18.30;99.90
8994;DHT22;4532;50.886;4.700;2023-05-10T12:53:46;18.30;99.90
8994;DHT22;4532;50.886;4.700;2023-05-10T12:56:17;18.40;99.90
8994;DHT22;4532;50.886;4.700;2023-05-10T12:58:45;18.40;99.90
8994;DHT22;4532;50.886;4.700;2023-05-10T13:01:17;18.40;99.90
8994;DHT22;4532;50.886;4.700;2023-05-10T13:03:44;18.40;99.90
8994;DHT22;4532;50.886;4.700;2023-05-10T13:06:13;18.40;99.90
8994;DHT22;4532;50.886;4.700;2023-05-10T13:08:42;18.50;99.90
8994;DHT22;4532;50.886;4.700;2023-05-10T13:11:10;18.50;99.90
8994;DHT22;4532;50.886;4.700;2023-05-10T13:13:43;18.50;99.90
8994;DHT22;4532;50.886;4.700;2023-05-10T13:16:13;18.50;99.90
8994;DHT22;4532;50.886;4.700;2023-05-10T13:18:45;18.50;99.90
8994;DHT22;4532;50.886;4.700;2023-05-10T13:21:14;18.50;99.90
8994;DHT22;4532;50.886;4.700;2023-05-10T13:23:44;18.50;99.90
8994;DHT22;4532;50.886;4.700;2023-05-10T13:26:11;18.60;99.90
8994;DHT22;4532;50.886;4.700;2023-05-10T13:28:43;18.60;99.90
8994;DHT22;4532;50.886;4.700;2023-05-10T13:31:10;18.60;99.90
8994;DHT22;4532;50.886;4.700;2023-05-10T13:33:42;18.60;99.90
8994;DHT22;4532;50.886;4.700;2023-05-10T13:36:12;18.60;99.90
8994;DHT22;4532;50.886;4.700;2023-05-10T13:38:41;18.60;99.90
8994;DHT22;4532;50.886;4.700;2023-05-10T13:41:10;18.60;99.90
8994;DHT22;4532;50.886;4.700;2023-05-10T13:43:39;18.60;99.90
8994;DHT22;4532;50.886;4.700;2023-05-10T13:46:09;18.60;99.90
8994;DHT22;4532;50.886;4.700;2023-05-10T13:48:39;18.60;99.90
8994;DHT22;4532;50.886;4.700;2023-05-10T13:51:06;18.60;99.90
8994;DHT22;4532;50.886;4.700;2023-05-10T13:53:36;18.60;99.90
8994;DHT22;4532;50.886;4.700;2023-05-10T13:56:03;18.60;99.90
8994;DHT22;4532;50.886;4.700;2023-05-10T13:58:30;18.60;99.90
8994;DHT22;4532;50.886;4.700;2023-05-10T14:00:57;18.60;99.90
8994;DHT22;4532;50.886;4.700;2023-05-10T14:03:29;18.60;99.90
8994;DHT22;4532;50.886;4.700;2023-05-10T14:05:56;18.60;99.90
8994;DHT22;4532;50.886;4.700;2023-05-10T14:08:26;18.60;99.90
8994;DHT22;4532;50.886;4.700;2023-05-10T14:10:59;18.60;99.90
8994;DHT22;4532;50.886;4.700;2023-05-10T14:13:28;18.60;99.90
8994;DHT22;4532;50.886;4.700;2023-05-10T14:15:56;18.60;99.90
8994;DHT22;4532;50.886;4.700;2023-05-10T14:18:23;18.60;99.90
8994;DHT22;4532;50.886;4.700;2023-05-10T14:20:50;18.60;99.90
8994;DHT22;4532;50.886;4.700;2023-05-10T14:23:21;18.60;99.90
8994;DHT22;4532;50.886;4.700;2023-05-10T14:25:53;18.60;99.90
8994;DHT22;4532;50.886;4.700;2023-05-10T14:28:25;18.60;99.90
8994;DHT22;4532;50.886;4.700;2023-05-10T14:30:55;18.70;99.90
8994;DHT22;4532;50.886;4.700;2023-05-10T14:33:22;18.70;99.90
8994;DHT22;4532;50.886;4.700;2023-05-10T14:35:51;18.70;99.90
8994;DHT22;4532;50.886;4.700;2023-05-10T14:38:23;18.80;99.90
8994;DHT22;4532;50.886;4.700;2023-05-10T14:40:50;18.80;99.90
8994;DHT22;4532;50.886;4.700;2023-05-10T14:43:18;18.80;99.90
8994;DHT22;4532;50.886;4.700;2023-05-10T14:45:49;18.90;99.90
8994;DHT22;4532;50.886;4.700;2023-05-10T14:48:19;18.90;99.90
8994;DHT22;4532;50.886;4.700;2023-05-10T14:50:48;18.90;99.90
8994;DHT22;4532;50.886;4.700;2023-05-10T14:53:19;18.90;99.90
8994;DHT22;4532;50.886;4.700;2023-05-10T14:55:46;18.90;99.90
8994;DHT22;4532;50.886;4.700;2023-05-10T14:58:15;18.90;99.90
8994;DHT22;4532;50.886;4.700;2023-05-10T15:00:43;18.90;99.90
8994;DHT22;4532;50.886;4.700;2023-05-10T15:03:10;18.90;99.90
8994;DHT22;4532;50.886;4.700;2023-05-10T15:05:38;18.90;99.90
8994;DHT22;4532;50.886;4.700;2023-05-10T15:08:14;18.90;99.90
8994;DHT22;4532;50.886;4.700;2023-05-10T15:10:41;18.90;99.90
8994;DHT22;4532;50.886;4.700;2023-05-10T15:13:09;18.90;99.90
8994;DHT22;4532;50.886;4.700;2023-05-10T15:15:40;18.90;99.90
8994;DHT22;4532;50.886;4.700;2023-05-10T15:18:09;18.90;99.90
8994;DHT22;4532;50.886;4.700;2023-05-10T15:20:39;18.90;99.90
8994;DHT22;4532;50.886;4.700;2023-05-10T15:23:11;18.80;99.90
8994;DHT22;4532;50.886;4.700;2023-05-10T15:25:39;18.80;99.90
8994;DHT22;4532;50.886;4.700;2023-05-10T15:28:06;18.80;99.90
8994;DHT22;4532;50.886;4.700;2023-05-10T15:30:38;18.80;99.90
8994;DHT22;4532;50.886;4.700;2023-05-10T15:33:08;18.70;99.90
8994;DHT22;4532;50.886;4.700;2023-05-10T15:35:35;18.70;99.90
8994;DHT22;4532;50.886;4.700;2023-05-10T15:38:05;18.70;99.90
8994;DHT22;4532;50.886;4.700;2023-05-10T15:40:32;18.70;99.90
8994;DHT22;4532;50.886;4.700;2023-05-10T15:43:04;18.70;99.90
8994;DHT22;4532;50.886;4.700;2023-05-10T15:45:34;18.70;99.90
8994;DHT22;4532;50.886;4.700;2023-05-10T15:48:06;18.70;99.90
8994;DHT22;4532;50.886;4.700;2023-05-10T15:50:35;18.60;99.90
8994;DHT22;4532;50.886;4.700;2023-05-10T15:53:05;18.50;99.90
8994;DHT22;4532;50.886;4.700;2023-05-10T15:55:34;18.50;99.90
8994;DHT22;4532;50.886;4.700;2023-05-10T15:58:01;18.40;99.90
8994;DHT22;4532;50.886;4.700;2023-05-10T16:00:29;18.30;99.90
8994;DHT22;4532;50.886;4.700;2023-05-10T16:02:56;18.30;99.90
8994;DHT22;4532;50.886;4.700;2023-05-10T16:05:23;18.20;99.90
8994;DHT22;4532;50.886;4.700;2023-05-10T16:07:56;18.10;99.90
8994;DHT22;4532;50.886;4.700;2023-05-10T16:10:28;18.00;99.90
8994;DHT22;4532;50.886;4.700;2023-05-10T16:13:00;17.90;99.90
8994;DHT22;4532;50.886;4.700;2023-05-10T16:15:28;17.90;99.90
8994;DHT22;4532;50.886;4.700;2023-05-10T16:17:55;17.80;99.90
8994;DHT22;4532;50.886;4.700;2023-05-10T16:20:23;17.70;99.90
8994;DHT22;4532;50.886;4.700;2023-05-10T16:22:53;17.70;99.90
8994;DHT22;4532;50.886;4.700;2023-05-10T16:25:25;17.60;99.90
8994;DHT22;4532;50.886;4.700;2023-05-10T16:27:55;17.60;99.90
8994;DHT22;4532;50.886;4.700;2023-05-10T16:30:25;17.50;99.90
8994;DHT22;4532;50.886;4.700;2023-05-10T16:32:55;17.40;99.90
8994;DHT22;4532;50.886;4.700;2023-05-10T16:35:25;17.30;99.90
8994;DHT22;4532;50.886;4.700;2023-05-10T16:37:58;17.30;99.90
8994;DHT22;4532;50.886;4.700;2023-05-10T16:40:25;17.20;99.90
8994;DHT22;4532;50.886;4.700;2023-05-10T16:42:57;17.20;99.90
8994;DHT22;4532;50.886;4.700;2023-05-10T16:45:29;17.20;99.90
8994;DHT22;4532;50.886;4.700;2023-05-10T16:47:59;17.10;99.90
8994;DHT22;4532;50.886;4.700;2023-05-10T16:50:26;17.00;99.90
8994;DHT22;4532;50.886;4.700;2023-05-10T16:52:55;17.00;99.90
8994;DHT22;4532;50.886;4.700;2023-05-10T16:55:23;16.90;99.90
8994;DHT22;4532;50.886;4.700;2023-05-10T16:57:54;16.90;99.90
8994;DHT22;4532;50.886;4.700;2023-05-10T17:00:28;16.90;99.90
8994;DHT22;4532;50.886;4.700;2023-05-10T17:02:55;16.80;99.90
8994;DHT22;4532;50.886;4.700;2023-05-10T17:05:23;16.80;99.90